Turkey Creek, Kentucky
Current Conditions -  °F | °C
As of 5:15 AM on Sunday 23 Nov 2014 (Local Time) from KPBX Reporting Station
Overcast Overcast  
Wind Chill: 51°   Ceiling: 10000
Heat Index: 51°   Visibility: 10mi
Dew Point: 33°   Wind: 9mph
Humidity: 50%   Direction: 140°SE
Pressure: 30.09"   Gusts: NA
Location:  37.632°N, 82.2603°W
Report Text: KPBX 231015Z AUTO 14008KT 10SM OVC100 11/01 A3009 RMK AO2 T01050005
Loading
Personal Weather Stations






























Interactive Weather Map New forecast layout! Learn more

10-Day Weather Forecast

Advertisements
Track Severe Weather on mobile